createdAt,value
2018-05-23T00:01:48.189Z,16.30
2018-05-23T00:04:15.653Z,16.30
2018-05-23T00:06:43.230Z,16.20
2018-05-23T00:09:10.967Z,16.20
2018-05-23T00:11:38.424Z,16.20
2018-05-23T00:14:05.994Z,16.20
2018-05-23T00:16:33.448Z,16.10
2018-05-23T00:19:00.894Z,16.10
2018-05-23T00:21:28.374Z,16.10
2018-05-23T00:23:55.848Z,16.10
2018-05-23T00:26:23.302Z,16.20
2018-05-23T00:28:50.752Z,16.20
2018-05-23T00:31:18.221Z,16.20
2018-05-23T00:33:45.671Z,16.10
2018-05-23T00:36:13.172Z,16.20
2018-05-23T00:38:41.031Z,16.10
2018-05-23T00:41:09.289Z,16.10
2018-05-23T00:43:36.766Z,16.10
2018-05-23T00:46:04.278Z,16.20
2018-05-23T00:48:31.782Z,16.20
2018-05-23T00:50:59.277Z,16.20
2018-05-23T00:53:26.757Z,16.20
2018-05-23T00:55:56.387Z,16.10
2018-05-23T00:58:24.356Z,16.10
2018-05-23T01:00:51.889Z,16.10
2018-05-23T01:03:20.099Z,16.10
2018-05-23T01:05:49.903Z,16.00
2018-05-23T01:08:18.115Z,16.00
2018-05-23T01:10:45.540Z,16.00
2018-05-23T01:13:13.031Z,16.00
2018-05-23T01:15:40.478Z,16.10
2018-05-23T01:18:07.956Z,16.00
2018-05-23T01:20:35.420Z,15.90
2018-05-23T01:23:02.897Z,16.10
2018-05-23T01:25:31.119Z,16.00
2018-05-23T01:27:58.577Z,16.00
2018-05-23T01:30:26.027Z,16.00
2018-05-23T01:32:53.487Z,16.00
2018-05-23T01:35:20.968Z,15.90
2018-05-23T01:37:48.434Z,15.90
2018-05-23T01:40:15.891Z,15.90
2018-05-23T01:42:43.352Z,15.90
2018-05-23T01:45:10.798Z,15.80
2018-05-23T01:47:38.300Z,15.80
2018-05-23T01:50:05.902Z,15.80
2018-05-23T01:52:34.125Z,15.70
2018-05-23T01:55:07.445Z,15.80
2018-05-23T01:57:34.892Z,15.70
2018-05-23T02:00:02.350Z,15.80
2018-05-23T02:02:29.810Z,15.80
2018-05-23T02:04:57.267Z,15.80
2018-05-23T02:07:24.726Z,15.90
2018-05-23T02:09:52.187Z,15.90
2018-05-23T02:12:19.630Z,16.00
2018-05-23T02:14:47.988Z,15.90
2018-05-23T02:17:15.444Z,15.90
2018-05-23T02:19:43.668Z,15.90
2018-05-23T02:22:11.159Z,15.80
2018-05-23T02:24:39.371Z,15.90
2018-05-23T02:27:06.889Z,15.80
2018-05-23T02:29:35.094Z,15.90
2018-05-23T02:32:02.574Z,15.90
2018-05-23T02:34:30.003Z,15.80
2018-05-23T02:36:57.475Z,15.80
2018-05-23T02:39:24.910Z,15.90
2018-05-23T02:41:52.387Z,15.90
2018-05-23T02:44:19.840Z,15.90
2018-05-23T02:46:47.305Z,15.90
2018-05-23T02:49:14.754Z,16.00
2018-05-23T02:51:42.231Z,16.00
2018-05-23T02:54:09.671Z,16.00
2018-05-23T02:56:37.144Z,16.00
2018-05-23T02:59:04.592Z,16.00
2018-05-23T03:01:32.078Z,16.00
2018-05-23T03:04:00.320Z,16.00
2018-05-23T03:06:27.779Z,16.00
2018-05-23T03:08:55.250Z,16.00
2018-05-23T03:11:22.694Z,16.00
2018-05-23T03:13:50.164Z,16.00
2018-05-23T03:16:17.615Z,15.90
2018-05-23T03:18:45.862Z,16.00
2018-05-23T03:21:13.307Z,16.00
2018-05-23T03:23:41.462Z,16.00
2018-05-23T03:26:09.663Z,16.10
2018-05-23T03:28:37.125Z,16.10
2018-05-23T03:31:04.580Z,16.10
2018-05-23T03:33:32.034Z,16.00
2018-05-23T03:35:59.510Z,16.00
2018-05-23T03:38:26.987Z,15.90
2018-05-23T03:40:54.427Z,16.00
2018-05-23T03:43:22.018Z,16.10
2018-05-23T03:45:50.228Z,16.00
2018-05-23T03:48:17.672Z,16.00
2018-05-23T03:50:45.151Z,16.00
2018-05-23T03:53:12.625Z,16.10
2018-05-23T03:55:40.082Z,16.10
2018-05-23T03:58:07.537Z,16.20
2018-05-23T04:00:46.826Z,16.20
2018-05-23T04:03:26.176Z,16.10
2018-05-23T04:06:05.590Z,16.20
2018-05-23T04:08:33.838Z,16.30
2018-05-23T04:11:01.297Z,16.30
2018-05-23T04:13:28.744Z,16.40
2018-05-23T04:15:56.199Z,16.40
2018-05-23T04:18:23.645Z,16.40
2018-05-23T04:20:51.882Z,16.50
2018-05-23T04:23:19.330Z,16.50
2018-05-23T04:25:46.794Z,16.50
2018-05-23T04:28:14.231Z,16.50
2018-05-23T04:30:41.693Z,16.50
2018-05-23T04:33:09.143Z,16.50
2018-05-23T04:35:37.363Z,16.50
2018-05-23T04:38:04.811Z,16.50
2018-05-23T04:40:32.294Z,16.60
2018-05-23T04:42:59.750Z,16.60
2018-05-23T04:45:27.212Z,16.70
2018-05-23T04:47:54.662Z,16.70
2018-05-23T04:50:22.193Z,16.80
2018-05-23T04:52:49.661Z,16.80
2018-05-23T04:55:17.154Z,16.90
2018-05-23T04:57:44.634Z,16.90
2018-05-23T05:00:12.841Z,16.90
2018-05-23T05:02:40.307Z,16.90
2018-05-23T05:05:08.651Z,17.00
2018-05-23T05:07:37.642Z,17.00
2018-05-23T05:10:05.187Z,17.00
2018-05-23T05:12:32.588Z,17.10
2018-05-23T05:15:00.031Z,17.10
2018-05-23T05:17:27.505Z,17.10
2018-05-23T05:19:54.951Z,17.20
2018-05-23T05:22:22.443Z,17.20
2018-05-23T05:24:49.879Z,17.20
2018-05-23T05:27:17.368Z,17.20
2018-05-23T05:29:44.800Z,17.20
2018-05-23T05:32:12.287Z,17.10
2018-05-23T05:34:40.564Z,17.10
2018-05-23T05:37:08.796Z,17.20
2018-05-23T05:39:36.294Z,17.10
2018-05-23T05:42:04.499Z,17.20
2018-05-23T05:44:32.005Z,17.10
2018-05-23T05:46:59.546Z,17.10
2018-05-23T05:49:27.711Z,17.10
2018-05-23T05:51:55.161Z,17.10
2018-05-23T05:54:22.643Z,16.90
2018-05-23T05:56:50.097Z,16.90
2018-05-23T05:59:17.578Z,16.80
2018-05-23T06:01:45.801Z,16.90
2018-05-23T06:04:13.282Z,16.90
2018-05-23T06:06:40.743Z,16.80
2018-05-23T06:09:08.235Z,16.80
2018-05-23T06:11:36.435Z,16.80
2018-05-23T06:14:03.883Z,16.80
2018-05-23T06:16:31.372Z,16.80
2018-05-23T06:18:58.821Z,16.70
2018-05-23T06:21:26.311Z,16.80
2018-05-23T06:23:53.769Z,16.90
2018-05-23T06:26:22.007Z,17.00
2018-05-23T06:28:49.491Z,16.90
2018-05-23T06:31:16.988Z,17.00
2018-05-23T06:33:44.448Z,17.20
2018-05-23T06:36:11.915Z,17.20
2018-05-23T06:38:39.393Z,17.30
2018-05-23T06:41:06.866Z,17.20
2018-05-23T06:43:34.330Z,17.30
2018-05-23T06:46:01.820Z,17.30
2018-05-23T06:48:29.315Z,17.40
2018-05-23T06:50:56.784Z,17.50
2018-05-23T06:53:24.332Z,17.60
2018-05-23T06:55:52.496Z,17.80
2018-05-23T06:58:19.946Z,17.80
2018-05-23T07:00:47.399Z,17.90
2018-05-23T07:03:14.878Z,18.10
2018-05-23T07:05:42.346Z,18.20
2018-05-23T07:08:09.847Z,18.10
2018-05-23T07:10:37.323Z,18.40
2018-05-23T07:13:04.815Z,18.50
2018-05-23T07:15:32.272Z,18.50
2018-05-23T07:17:59.781Z,18.70
2018-05-23T07:20:27.202Z,18.80
2018-05-23T07:22:54.660Z,18.90
2018-05-23T07:25:22.127Z,19.00
2018-05-23T07:33:25.191Z,18.70
2018-05-23T07:35:52.665Z,18.30
2018-05-23T07:38:20.224Z,18.50
2018-05-23T07:40:47.661Z,18.60
2018-05-23T07:49:24.411Z,18.30
2018-05-23T07:59:15.535Z,18.20
2018-05-23T08:01:43.014Z,18.20
2018-05-23T08:04:10.506Z,18.30
2018-05-23T08:06:38.008Z,18.40
2018-05-23T08:09:05.505Z,18.50
2018-05-23T08:11:33.008Z,18.60
2018-05-23T08:14:01.247Z,18.90
2018-05-23T08:16:28.780Z,18.90
2018-05-23T08:18:57.044Z,19.20
2018-05-23T08:21:24.590Z,19.20
2018-05-23T08:23:52.071Z,19.40
2018-05-23T08:26:19.559Z,19.50
2018-05-23T08:28:47.065Z,19.60
2018-05-23T08:31:15.319Z,19.90
2018-05-23T08:33:42.891Z,19.90
2018-05-23T08:36:10.351Z,19.90
2018-05-23T08:38:37.823Z,19.90
2018-05-23T08:41:05.344Z,20.10
2018-05-23T08:43:33.617Z,20.40
2018-05-23T08:46:01.104Z,20.30
2018-05-23T08:48:28.579Z,20.80
2018-05-23T08:50:56.067Z,21.20
2018-05-23T08:53:23.570Z,21.30
2018-05-23T08:55:51.051Z,21.70
2018-05-23T08:58:19.422Z,22.80
2018-05-23T09:00:46.888Z,22.70
2018-05-23T09:03:14.372Z,22.70
2018-05-23T09:05:41.835Z,22.70
2018-05-23T09:08:09.305Z,23.20
2018-05-23T09:10:36.769Z,24.00
2018-05-23T09:13:04.223Z,24.50
2018-05-23T09:15:31.711Z,24.00
2018-05-23T09:17:59.174Z,24.20
2018-05-23T09:20:26.663Z,25.10
2018-05-23T09:22:54.537Z,25.80
2018-05-23T09:25:22.109Z,25.80
2018-05-23T09:27:49.478Z,26.30
2018-05-23T09:30:16.959Z,26.00
2018-05-23T09:32:44.420Z,26.40
2018-05-23T09:35:11.942Z,26.10
2018-05-23T09:37:39.467Z,25.70
2018-05-23T09:40:07.712Z,27.10
2018-05-23T09:42:35.224Z,27.10
2018-05-23T09:45:03.979Z,25.70
2018-05-23T09:47:32.195Z,25.40
2018-05-23T09:49:59.653Z,25.40
2018-05-23T09:52:27.125Z,25.50
2018-05-23T09:54:54.604Z,25.30
2018-05-23T09:57:22.164Z,25.20
2018-05-23T09:59:49.630Z,25.20
2018-05-23T10:02:17.101Z,25.50
2018-05-23T10:04:44.824Z,26.00
2018-05-23T10:07:12.276Z,26.40
2018-05-23T10:09:40.488Z,26.40
2018-05-23T10:12:08.280Z,26.50
2018-05-23T10:14:35.894Z,27.10
2018-05-23T10:17:04.207Z,27.10
2018-05-23T10:19:31.958Z,27.00
2018-05-23T10:21:59.754Z,27.00
2018-05-23T10:24:27.639Z,26.70
2018-05-23T10:26:55.136Z,26.60
2018-05-23T10:31:55.664Z,26.50
2018-05-23T10:42:50.146Z,27.60
2018-05-23T10:45:17.615Z,27.30
2018-05-23T10:47:45.100Z,27.30
2018-05-23T10:50:12.545Z,27.10
2018-05-23T10:52:40.051Z,26.60
2018-05-23T10:55:08.298Z,26.80
2018-05-23T10:57:35.780Z,26.70
2018-05-23T11:00:09.792Z,27.30
2018-05-23T11:02:38.122Z,27.40
2018-05-23T11:05:05.583Z,27.40
2018-05-23T11:07:33.063Z,27.40
2018-05-23T11:10:00.572Z,27.70
2018-05-23T11:12:28.011Z,27.50
2018-05-23T11:14:55.548Z,27.40
2018-05-23T11:17:22.989Z,27.30
2018-05-23T11:19:50.556Z,27.20
2018-05-23T11:22:18.790Z,28.10
2018-05-23T11:24:46.262Z,28.10
2018-05-23T11:27:13.733Z,28.30
2018-05-23T11:29:41.301Z,28.30
2018-05-23T11:32:08.708Z,28.50
2018-05-23T11:34:36.185Z,28.40
2018-05-23T11:37:03.914Z,28.60
2018-05-23T11:39:31.395Z,28.60
2018-05-23T11:41:58.872Z,28.50
2018-05-23T11:44:26.318Z,28.80
2018-05-23T11:46:54.573Z,28.90
2018-05-23T11:49:22.019Z,28.90
2018-05-23T11:51:49.535Z,28.70
2018-05-23T11:54:17.014Z,27.90
2018-05-23T11:56:44.479Z,27.80
2018-05-23T11:59:11.938Z,27.80
2018-05-23T12:01:39.382Z,28.00
2018-05-23T12:04:06.853Z,28.60
2018-05-23T12:06:34.306Z,28.60
2018-05-23T12:09:01.754Z,28.60
2018-05-23T12:11:29.394Z,28.50
2018-05-23T12:13:56.848Z,28.70
2018-05-23T12:16:24.342Z,28.70
2018-05-23T12:18:51.799Z,28.50
2018-05-23T12:21:20.028Z,29.10
2018-05-23T12:23:48.368Z,28.70
2018-05-23T12:26:16.632Z,28.60
2018-05-23T12:28:44.880Z,28.00
2018-05-23T12:31:12.362Z,28.00
2018-05-23T12:33:40.571Z,28.00
2018-05-23T12:36:08.780Z,28.10
2018-05-23T12:38:36.245Z,28.10
2018-05-23T12:41:03.716Z,28.00
2018-05-23T12:43:31.161Z,27.80
2018-05-23T12:45:58.602Z,28.00
2018-05-23T12:48:26.966Z,28.60
2018-05-23T12:50:54.449Z,29.30
2018-05-23T12:53:22.669Z,29.40
2018-05-23T12:55:50.245Z,29.50
2018-05-23T12:58:17.708Z,29.20
2018-05-23T13:00:45.194Z,28.60
2018-05-23T13:03:13.416Z,28.00
2018-05-23T13:05:40.878Z,27.90
2018-05-23T13:08:08.329Z,27.70
2018-05-23T13:10:35.798Z,27.60
2018-05-23T13:13:03.235Z,27.50
2018-05-23T13:15:30.818Z,27.70
2018-05-23T13:17:58.384Z,27.60
2018-05-23T13:20:25.706Z,27.60
2018-05-23T13:22:53.275Z,27.50
2018-05-23T13:25:21.569Z,27.40
2018-05-23T13:27:48.989Z,27.40
2018-05-23T13:30:16.472Z,26.90
2018-05-23T13:32:43.916Z,26.40
2018-05-23T13:35:11.429Z,26.40
2018-05-23T13:37:38.880Z,26.30
2018-05-23T13:40:06.339Z,26.30
2018-05-23T13:42:33.827Z,26.10
2018-05-23T13:45:01.316Z,26.00
2018-05-23T13:47:28.773Z,25.90
2018-05-23T13:49:56.224Z,25.80
2018-05-23T13:52:23.679Z,25.80
2018-05-23T13:54:51.161Z,25.50
2018-05-23T13:57:18.649Z,25.60
2018-05-23T13:59:46.938Z,25.80
2018-05-23T14:02:14.429Z,25.90
2018-05-23T14:04:41.895Z,25.70
2018-05-23T14:07:09.347Z,25.80
2018-05-23T14:09:36.858Z,25.80
2018-05-23T14:12:05.050Z,25.90
2018-05-23T14:14:32.526Z,25.90
2018-05-23T14:17:00.482Z,25.80
2018-05-23T14:19:28.015Z,25.90
2018-05-23T14:21:55.747Z,25.90
2018-05-23T14:24:24.183Z,25.60
2018-05-23T14:26:51.636Z,25.60
2018-05-23T14:29:19.165Z,25.50
2018-05-23T14:31:46.620Z,25.40
2018-05-23T14:34:14.236Z,25.00
2018-05-23T14:36:52.411Z,24.80
2018-05-23T14:39:29.072Z,24.60
2018-05-23T14:42:01.277Z,24.10
2018-05-23T14:44:30.373Z,23.50
2018-05-23T14:46:58.171Z,23.50
2018-05-23T14:49:25.671Z,23.40
2018-05-23T14:51:53.251Z,23.10
2018-05-23T14:54:21.209Z,23.10
2018-05-23T14:56:48.726Z,22.80
2018-05-23T14:59:16.236Z,22.80
2018-05-23T15:01:43.762Z,22.50
2018-05-23T15:04:11.339Z,22.50
2018-05-23T15:06:38.902Z,22.30
2018-05-23T15:09:06.398Z,22.20
2018-05-23T15:11:33.921Z,22.10
2018-05-23T15:14:01.416Z,21.90
2018-05-23T15:16:28.878Z,21.80
2018-05-23T15:18:56.331Z,21.70
2018-05-23T15:21:23.851Z,21.80
2018-05-23T15:33:31.393Z,21.60
2018-05-23T15:35:59.536Z,20.60
2018-05-23T15:38:27.520Z,20.30
2018-05-23T15:40:55.313Z,20.10
2018-05-23T15:43:22.836Z,20.10
2018-05-23T15:45:50.337Z,20.10
2018-05-23T15:48:18.625Z,19.80
2018-05-23T15:50:46.112Z,19.80
2018-05-23T15:53:13.623Z,19.90
2018-05-23T15:55:41.095Z,19.70
2018-05-23T15:58:09.276Z,19.70
2018-05-23T16:00:36.745Z,19.70
2018-05-23T16:03:05.116Z,19.80
2018-05-23T16:05:32.552Z,19.70
2018-05-23T16:08:00.113Z,19.70
2018-05-23T16:10:27.599Z,19.70
2018-05-23T16:12:55.076Z,19.70
2018-05-23T16:15:22.599Z,19.70
2018-05-23T16:17:50.180Z,19.70
2018-05-23T16:20:18.432Z,19.70
2018-05-23T16:22:45.923Z,19.60
2018-05-23T16:25:13.385Z,19.60
2018-05-23T16:27:40.932Z,19.60
2018-05-23T16:30:09.303Z,19.60
2018-05-23T16:32:36.767Z,19.50
2018-05-23T16:35:04.262Z,19.40
2018-05-23T16:37:31.728Z,19.30
2018-05-23T16:40:00.311Z,19.10
2018-05-23T16:42:27.768Z,19.10
2018-05-23T16:44:55.239Z,19.20
2018-05-23T16:47:22.726Z,19.20
2018-05-23T16:49:50.394Z,19.20
2018-05-23T16:52:17.849Z,19.20
2018-05-23T16:54:45.353Z,19.10
2018-05-23T16:57:12.839Z,19.20
2018-05-23T16:59:40.381Z,19.40
2018-05-23T17:02:07.863Z,19.30
2018-05-23T17:04:35.335Z,19.40
2018-05-23T17:07:02.829Z,19.40
2018-05-23T17:09:30.638Z,19.50
2018-05-23T17:11:58.893Z,19.40
2018-05-23T17:14:26.382Z,19.40
2018-05-23T17:16:53.875Z,19.50
2018-05-23T17:19:21.395Z,19.60
2018-05-23T17:21:48.891Z,19.60
2018-05-23T17:24:16.383Z,19.40
2018-05-23T17:26:43.858Z,19.50
2018-05-23T17:29:12.215Z,19.50
2018-05-23T17:31:39.778Z,19.50
2018-05-23T17:34:07.270Z,19.50
2018-05-23T17:36:34.751Z,19.60
2018-05-23T17:39:02.249Z,19.70
2018-05-23T17:41:29.763Z,19.70
2018-05-23T17:43:57.215Z,19.60
2018-05-23T17:46:24.731Z,19.70
2018-05-23T17:48:52.800Z,19.70
2018-05-23T17:51:20.261Z,19.70
2018-05-23T17:53:47.722Z,19.70
2018-05-23T17:56:16.127Z,19.70
2018-05-23T17:58:43.615Z,19.80
2018-05-23T18:01:11.103Z,19.80
2018-05-23T18:03:39.340Z,19.90
2018-05-23T18:06:06.886Z,19.90
2018-05-23T18:08:34.933Z,19.80
2018-05-23T18:11:02.423Z,19.80
2018-05-23T18:13:29.889Z,19.80
2018-05-23T18:15:57.385Z,19.90
2018-05-23T18:18:25.630Z,19.90
2018-05-23T18:20:53.120Z,19.90
2018-05-23T18:23:20.685Z,19.90
2018-05-23T18:25:48.104Z,19.90
2018-05-23T18:28:16.445Z,19.90
2018-05-23T18:30:43.844Z,19.90
2018-05-23T18:33:11.359Z,19.80
2018-05-23T18:35:39.651Z,19.70
2018-05-23T18:38:07.914Z,19.70
2018-05-23T18:40:35.387Z,19.70
2018-05-23T18:43:02.863Z,19.80
2018-05-23T18:45:33.159Z,19.70
2018-05-23T18:48:01.420Z,19.70
2018-05-23T18:50:28.996Z,19.60
2018-05-23T18:52:56.468Z,19.60
2018-05-23T18:55:24.735Z,19.50
2018-05-23T18:57:52.243Z,19.50
2018-05-23T19:00:21.215Z,19.50
2018-05-23T19:02:48.682Z,19.50
2018-05-23T19:05:16.199Z,19.50
2018-05-23T19:07:43.650Z,19.50
2018-05-23T19:10:11.139Z,19.40
2018-05-23T19:12:38.634Z,19.40
2018-05-23T19:15:06.139Z,19.40
2018-05-23T19:17:33.639Z,19.40
2018-05-23T19:20:01.150Z,19.30
2018-05-23T19:22:28.652Z,19.30
2018-05-23T19:24:56.139Z,19.20
2018-05-23T19:27:23.625Z,19.20
2018-05-23T19:29:51.086Z,19.20
2018-05-23T19:32:18.630Z,19.10
2018-05-23T19:34:46.115Z,19.10
2018-05-23T19:37:13.620Z,19.10
2018-05-23T19:39:41.400Z,19.00
2018-05-23T19:42:08.832Z,18.90
2018-05-23T19:44:36.316Z,18.90
2018-05-23T19:47:03.808Z,18.80
2018-05-23T19:49:32.051Z,18.80
2018-05-23T19:51:59.535Z,18.80
2018-05-23T19:54:27.084Z,18.90
2018-05-23T19:56:54.595Z,18.90
2018-05-23T19:59:22.075Z,18.80
2018-05-23T20:01:49.535Z,18.80
2018-05-23T20:04:17.035Z,18.80
2018-05-23T20:06:44.529Z,18.70
2018-05-23T20:09:12.018Z,18.70
2018-05-23T20:11:40.258Z,18.60
2018-05-23T20:14:08.346Z,18.60
2018-05-23T20:16:35.854Z,18.60
2018-05-23T20:19:04.102Z,18.40
2018-05-23T20:21:31.594Z,18.40
2018-05-23T20:23:59.066Z,18.40
2018-05-23T20:26:26.573Z,18.40
2018-05-23T20:28:54.087Z,18.40
2018-05-23T20:31:21.698Z,18.40
2018-05-23T20:33:49.898Z,18.40
2018-05-23T20:36:17.559Z,18.40
2018-05-23T20:38:45.331Z,18.30
2018-05-23T20:41:12.873Z,18.40
2018-05-23T20:43:41.430Z,18.30
2018-05-23T20:46:10.346Z,18.20
2018-05-23T20:48:37.892Z,18.30
2018-05-23T20:51:05.520Z,18.30
2018-05-23T20:53:33.993Z,18.30
2018-05-23T20:56:01.841Z,18.30
2018-05-23T20:58:30.312Z,18.30
2018-05-23T21:00:57.784Z,18.30
2018-05-23T21:03:25.307Z,18.20
2018-05-23T21:05:52.809Z,18.20
2018-05-23T21:08:20.307Z,18.20
2018-05-23T21:10:47.760Z,18.20
2018-05-23T21:13:15.335Z,18.20
2018-05-23T21:15:42.827Z,18.30
2018-05-23T21:18:10.317Z,18.30
2018-05-23T21:20:37.801Z,18.30
2018-05-23T21:23:06.121Z,18.40
2018-05-23T21:25:33.602Z,18.40
2018-05-23T21:28:01.082Z,18.40
2018-05-23T21:30:28.573Z,18.30
2018-05-23T21:32:56.139Z,18.30
2018-05-23T21:35:24.028Z,18.30
2018-05-23T21:37:55.930Z,18.30
2018-05-23T21:40:23.542Z,18.20
2018-05-23T21:42:51.771Z,18.40
2018-05-23T21:45:19.253Z,18.30
2018-05-23T21:47:46.777Z,18.40
2018-05-23T21:50:14.303Z,18.30
2018-05-23T21:52:41.783Z,18.20
2018-05-23T21:55:09.282Z,18.30
2018-05-23T21:57:38.912Z,18.20
2018-05-23T22:00:07.384Z,18.20
2018-05-23T22:02:34.852Z,18.20
2018-05-23T22:05:02.467Z,18.20
2018-05-23T22:07:30.349Z,18.10
2018-05-23T22:09:58.162Z,18.20
2018-05-23T22:12:26.256Z,18.10
2018-05-23T22:14:53.738Z,18.20
2018-05-23T22:17:21.213Z,18.10
2018-05-23T22:19:49.328Z,18.10
2018-05-23T22:22:16.816Z,18.10
2018-05-23T22:24:44.427Z,18.10
2018-05-23T22:27:21.337Z,18.00
2018-05-23T22:32:37.881Z,18.00
2018-05-23T22:35:06.601Z,18.10
2018-05-23T22:37:34.416Z,18.00
2018-05-23T22:40:04.628Z,18.00
2018-05-23T22:42:37.591Z,17.90
2018-05-23T22:45:05.403Z,17.90
2018-05-23T22:47:33.341Z,17.90
2018-05-23T22:50:00.918Z,17.90
2018-05-23T22:52:28.509Z,18.00
2018-05-23T22:54:56.754Z,18.00
2018-05-23T22:57:24.261Z,18.00
2018-05-23T22:59:51.708Z,18.00
2018-05-23T23:02:19.255Z,18.00
2018-05-23T23:04:46.800Z,17.90
2018-05-23T23:07:14.282Z,17.90
2018-05-23T23:09:42.540Z,17.90
2018-05-23T23:12:10.102Z,17.90
2018-05-23T23:14:37.572Z,17.90
2018-05-23T23:17:05.054Z,17.90
2018-05-23T23:19:32.528Z,17.90
2018-05-23T23:22:00.014Z,17.70
2018-05-23T23:24:29.515Z,17.80
2018-05-23T23:26:57.943Z,17.80
2018-05-23T23:29:31.108Z,17.80
2018-05-23T23:31:58.783Z,17.80
2018-05-23T23:34:35.804Z,17.70
2018-05-23T23:37:03.711Z,17.60
2018-05-23T23:39:31.188Z,17.70
2018-05-23T23:41:58.724Z,17.80
2018-05-23T23:44:26.184Z,17.70
2018-05-23T23:46:53.673Z,17.70
2018-05-23T23:52:39.304Z,17.70
2018-05-23T23:55:07.957Z,17.70
